METAR Reports From Nearby Airports

 

KLUD - Decatur, Texas, USA
Distance from Wildwood: ESE 5mi, 8km
Updated: Feb 16, 2020 10:35pm
Clear
Clear
 Wind from SSE
Wind: SSE 13 mph , 20 km/h
Temperature: 63°F , 17°C
Dew Point: 54°F , 12°C
Humidity: 73%
Barometer: 29.83 inHg , 1010.2 hPa
Clouds: Clear
Visibility: 10 miles , 16 km
2020/02/17 04:35 KLUD 170435Z AUTO 15011KT 10SM CLR 17/12 A2983 RMK AO2 T01660117
KXBP - Bridgeport, Texas, USA
Distance from Wildwood: WSW 11mi, 18km
Updated: Feb 16, 2020 10:35pm
Clear
Clear
 Wind from calm
Wind: Calm
Temperature: 50°F , 10°C
Dew Point: 41°F , 5°C
Humidity: 71%
Barometer: 29.84 inHg , 1010.5 hPa
Clouds: Clear
Visibility: 10 miles , 16 km
2020/02/17 04:35 KXBP 170435Z AUTO 00000KT 10SM CLR 10/05 A2984 RMK AO2 T01000051
 
K0F2 - Bowie, Texas, USA
Distance from Wildwood: NNW 24mi, 39km
Updated: Feb 16, 2020 10:35pm
Clear
Clear
 Wind from calm
Wind: Calm
Temperature: 55°F , 13°C
Dew Point: 48°F , 9°C
Humidity: 77%
Barometer: 29.83 inHg , 1010.2 hPa
Clouds: Clear
Visibility: 10 miles , 16 km
2020/02/17 04:35 K0F2 170435Z AUTO 00000KT 10SM CLR 13/09 A2983 RMK AO2 T01310090
KDTO - Denton, Texas, USA
Distance from Wildwood: E 27mi, 44km
Updated: Feb 16, 2020 9:53pm
Clear
Clear
 Wind from SSE
Wind: SSE 8 mph , 13 km/h
Temperature: 63°F , 17°C
Dew Point: 54°F , 12°C
Humidity: 73%
Barometer: 29.84 inHg , 1010.5 hPa
Clouds: Clear
Visibility: 10 miles , 16 km
2020/02/17 03:53 KDTO 170353Z AUTO 15007KT 10SM CLR 17/12 A2984 RMK AO2 SLP099 T01670122
 
KAFW - Ft Worth/Allianc, Texas, USA
Distance from Wildwood: SE 29mi, 46km
Updated: Feb 16, 2020 9:53pm
Clear
Clear
 Wind from SSE
Wind: SSE 9 mph , 15 km/h
Temperature: 63°F , 17°C
Dew Point: 54°F , 12°C
Humidity: 73%
Barometer: 29.83 inHg , 1010.2 hPa
Clouds: Clear
Visibility: 10 miles , 16 km
2020/02/17 03:53 KAFW 170353Z 16008KT 10SM CLR 17/12 A2983 RMK AO2 SLP096 T01670117
KFTW - Fort Worth, Texas, USA
Distance from Wildwood: SSE 34mi, 55km
Updated: Feb 16, 2020 9:53pm
Clear
Clear
 Wind from SSE
Wind: SSE 12 mph , 19 km/h
Temperature: 63°F , 17°C
Dew Point: 55°F , 13°C
Humidity: 77%
Barometer: 29.83 inHg , 1010.2 hPa
Clouds: Clear
Visibility: 10 miles , 16 km
2020/02/17 03:53 KFTW 170353Z 16010KT 10SM CLR 17/13 A2983 RMK AO2 SLP099 T01670128
 
KNFW - Fort Worth Nas, Texas, USA
Distance from Wildwood: SSE 36mi, 58km
Updated: Feb 16, 2020 9:52pm
Clear
Clear
 Wind from S
Wind: S 14 mph , 22 km/h
Temperature: 77°F , 25°C
Dew Point: 55°F , 13°C
Humidity: 47%
Barometer: 29.84 inHg , 1010.5 hPa
Clouds: Clear
2020/02/17 03:52 KNFW 170352Z AUTO 17012KT CLR 25/13 A2984 RMK AO2 SLP087 T02500128 VISNO N $
KGLE - Gainesville, Texas, USA
Distance from Wildwood: NE 38mi, 61km
Updated: Feb 16, 2020 10:35pm
Clear
Clear
 Wind from ESE
Wind: ESE 3 mph , 6 km/h
Temperature: 57°F , 14°C
Dew Point: 50°F , 10°C
Humidity: 77%
Barometer: 29.86 inHg , 1011.2 hPa
Clouds: Clear
Visibility: 10 miles , 16 km
2020/02/17 04:35 KGLE 170435Z AUTO 12003KT 10SM CLR 14/10 A2986 RMK AO2 T01350102 PWINO
 
KMWL - Mineral Wells, Texas, USA
Distance from Wildwood: SW 41mi, 65km
Updated: Feb 16, 2020 9:53pm
Clear
Clear
 Wind from SE
Wind: SE 14 mph , 22 km/h
Temperature: 55°F , 13°C
Dew Point: 41°F , 5°C
Humidity: 59%
Barometer: 29.81 inHg , 1009.5 hPa
Clouds: Clear
Visibility: 10 miles , 16 km
2020/02/17 03:53 KMWL 170353Z AUTO 13012KT 10SM CLR 13/05 A2981 RMK AO2 SLP088 T01330050
KDFW - Dallas/Ft Worth, Texas, USA
Distance from Wildwood: ESE 45mi, 73km
Updated: Feb 16, 2020 9:53pm
Clear
Clear
 Wind from S
Wind: S 12 mph , 19 km/h
Temperature: 64°F , 18°C
Dew Point: 55°F , 13°C
Humidity: 73%
Barometer: 29.83 inHg , 1010.2 hPa
Clouds: Clear
Visibility: 10 miles , 16 km
2020/02/17 03:53 KDFW 170353Z 17010KT 10SM CLR 18/13 A2983 RMK AO2 SLP098 T01780128